sensor_id;sensor_type;location;lat;lon;timestamp;P1;durP1;ratioP1;P2;durP2;ratioP2
73850;SDS011;62190;51.548;5.688;2023-03-12T00:00:49;11.03;;;4.37;;
73850;SDS011;62190;51.548;5.688;2023-03-12T00:03:17;6.20;;;3.52;;
73850;SDS011;62190;51.548;5.688;2023-03-12T00:05:46;13.83;;;4.55;;
73850;SDS011;62190;51.548;5.688;2023-03-12T00:08:13;11.55;;;3.70;;
73850;SDS011;62190;51.548;5.688;2023-03-12T00:10:41;9.88;;;4.10;;
73850;SDS011;62190;51.548;5.688;2023-03-12T00:13:08;7.12;;;3.55;;
73850;SDS011;62190;51.548;5.688;2023-03-12T00:15:36;7.53;;;3.33;;
73850;SDS011;62190;51.548;5.688;2023-03-12T00:18:04;10.20;;;3.20;;
73850;SDS011;62190;51.548;5.688;2023-03-12T00:20:32;7.40;;;3.27;;
73850;SDS011;62190;51.548;5.688;2023-03-12T00:22:59;6.90;;;3.25;;
73850;SDS011;62190;51.548;5.688;2023-03-12T00:25:26;6.78;;;3.75;;
73850;SDS011;62190;51.548;5.688;2023-03-12T00:27:54;5.80;;;3.42;;
73850;SDS011;62190;51.548;5.688;2023-03-12T00:30:21;5.90;;;3.17;;
73850;SDS011;62190;51.548;5.688;2023-03-12T00:32:48;6.20;;;3.25;;
73850;SDS011;62190;51.548;5.688;2023-03-12T00:35:17;8.03;;;4.67;;
73850;SDS011;62190;51.548;5.688;2023-03-12T00:37:45;7.42;;;4.22;;
73850;SDS011;62190;51.548;5.688;2023-03-12T00:40:18;4.58;;;2.87;;
73850;SDS011;62190;51.548;5.688;2023-03-12T00:42:42;7.78;;;3.70;;
73850;SDS011;62190;51.548;5.688;2023-03-12T00:45:13;9.68;;;3.35;;
73850;SDS011;62190;51.548;5.688;2023-03-12T00:47:40;5.62;;;3.37;;
73850;SDS011;62190;51.548;5.688;2023-03-12T00:50:08;6.55;;;3.40;;
73850;SDS011;62190;51.548;5.688;2023-03-12T00:52:36;7.75;;;3.05;;
73850;SDS011;62190;51.548;5.688;2023-03-12T00:55:03;8.73;;;3.70;;
73850;SDS011;62190;51.548;5.688;2023-03-12T00:57:30;7.37;;;3.42;;
73850;SDS011;62190;51.548;5.688;2023-03-12T00:59:58;6.28;;;3.47;;
73850;SDS011;62190;51.548;5.688;2023-03-12T01:02:25;5.70;;;2.85;;
73850;SDS011;62190;51.548;5.688;2023-03-12T01:04:54;9.03;;;2.87;;
73850;SDS011;62190;51.548;5.688;2023-03-12T01:07:21;5.55;;;2.90;;
73850;SDS011;62190;51.548;5.688;2023-03-12T01:09:51;13.10;;;3.62;;
73850;SDS011;62190;51.548;5.688;2023-03-12T01:12:18;7.87;;;3.00;;
73850;SDS011;62190;51.548;5.688;2023-03-12T01:14:45;6.62;;;2.83;;
73850;SDS011;62190;51.548;5.688;2023-03-12T01:17:12;13.30;;;3.52;;
73850;SDS011;62190;51.548;5.688;2023-03-12T01:19:41;4.55;;;2.87;;
73850;SDS011;62190;51.548;5.688;2023-03-12T01:22:09;7.25;;;2.98;;
73850;SDS011;62190;51.548;5.688;2023-03-12T01:24:36;8.48;;;3.50;;
73850;SDS011;62190;51.548;5.688;2023-03-12T01:27:03;5.03;;;2.70;;
73850;SDS011;62190;51.548;5.688;2023-03-12T01:29:31;6.47;;;2.90;;
73850;SDS011;62190;51.548;5.688;2023-03-12T01:31:58;6.90;;;2.85;;
73850;SDS011;62190;51.548;5.688;2023-03-12T01:34:25;4.55;;;3.05;;
73850;SDS011;62190;51.548;5.688;2023-03-12T01:36:54;6.33;;;3.15;;
73850;SDS011;62190;51.548;5.688;2023-03-12T01:39:23;7.53;;;2.95;;
73850;SDS011;62190;51.548;5.688;2023-03-12T01:41:51;5.60;;;2.37;;
73850;SDS011;62190;51.548;5.688;2023-03-12T01:44:18;5.55;;;3.00;;
73850;SDS011;62190;51.548;5.688;2023-03-12T01:46:46;6.33;;;3.02;;
73850;SDS011;62190;51.548;5.688;2023-03-12T01:49:14;5.97;;;3.33;;
73850;SDS011;62190;51.548;5.688;2023-03-12T01:51:57;6.20;;;2.90;;
73850;SDS011;62190;51.548;5.688;2023-03-12T01:54:39;6.17;;;2.98;;
73850;SDS011;62190;51.548;5.688;2023-03-12T01:57:15;8.18;;;3.40;;
73850;SDS011;62190;51.548;5.688;2023-03-12T01:59:46;7.20;;;2.90;;
73850;SDS011;62190;51.548;5.688;2023-03-12T02:02:18;6.53;;;3.70;;
73850;SDS011;62190;51.548;5.688;2023-03-12T02:04:49;8.33;;;4.03;;
73850;SDS011;62190;51.548;5.688;2023-03-12T02:07:16;7.00;;;3.47;;
73850;SDS011;62190;51.548;5.688;2023-03-12T02:09:46;6.95;;;3.45;;
73850;SDS011;62190;51.548;5.688;2023-03-12T02:12:15;6.97;;;2.65;;
73850;SDS011;62190;51.548;5.688;2023-03-12T02:14:43;4.72;;;3.02;;
73850;SDS011;62190;51.548;5.688;2023-03-12T02:17:10;5.78;;;3.15;;
73850;SDS011;62190;51.548;5.688;2023-03-12T02:22:12;5.80;;;2.90;;
73850;SDS011;62190;51.548;5.688;2023-03-12T02:27:30;7.80;;;3.10;;
73850;SDS011;62190;51.548;5.688;2023-03-12T02:29:59;7.45;;;2.52;;
73850;SDS011;62190;51.548;5.688;2023-03-12T02:32:29;8.53;;;3.37;;
73850;SDS011;62190;51.548;5.688;2023-03-12T02:34:58;5.85;;;2.83;;
73850;SDS011;62190;51.548;5.688;2023-03-12T02:37:26;6.55;;;2.70;;
73850;SDS011;62190;51.548;5.688;2023-03-12T02:39:55;8.00;;;3.15;;
73850;SDS011;62190;51.548;5.688;2023-03-12T02:42:30;5.87;;;2.80;;
73850;SDS011;62190;51.548;5.688;2023-03-12T02:44:58;4.85;;;2.92;;
73850;SDS011;62190;51.548;5.688;2023-03-12T02:47:26;6.65;;;3.10;;
73850;SDS011;62190;51.548;5.688;2023-03-12T02:49:53;6.03;;;2.55;;
73850;SDS011;62190;51.548;5.688;2023-03-12T02:52:22;8.68;;;4.35;;
73850;SDS011;62190;51.548;5.688;2023-03-12T02:54:50;5.35;;;3.00;;
73850;SDS011;62190;51.548;5.688;2023-03-12T02:57:17;9.63;;;3.22;;
73850;SDS011;62190;51.548;5.688;2023-03-12T02:59:44;6.65;;;3.02;;
73850;SDS011;62190;51.548;5.688;2023-03-12T03:02:12;6.70;;;3.35;;
73850;SDS011;62190;51.548;5.688;2023-03-12T03:04:39;7.45;;;3.37;;
73850;SDS011;62190;51.548;5.688;2023-03-12T03:07:06;9.53;;;3.62;;
73850;SDS011;62190;51.548;5.688;2023-03-12T03:09:34;7.67;;;3.62;;
73850;SDS011;62190;51.548;5.688;2023-03-12T03:12:03;10.65;;;4.33;;
73850;SDS011;62190;51.548;5.688;2023-03-12T03:14:30;6.65;;;3.50;;
73850;SDS011;62190;51.548;5.688;2023-03-12T03:16:57;8.05;;;3.02;;
73850;SDS011;62190;51.548;5.688;2023-03-12T03:19:25;7.67;;;3.60;;
73850;SDS011;62190;51.548;5.688;2023-03-12T03:21:52;7.62;;;3.72;;
73850;SDS011;62190;51.548;5.688;2023-03-12T03:24:20;8.10;;;3.80;;
73850;SDS011;62190;51.548;5.688;2023-03-12T03:26:47;7.50;;;3.83;;
73850;SDS011;62190;51.548;5.688;2023-03-12T03:29:14;10.43;;;4.33;;
73850;SDS011;62190;51.548;5.688;2023-03-12T03:31:42;8.60;;;3.87;;
73850;SDS011;62190;51.548;5.688;2023-03-12T03:34:09;8.60;;;3.58;;
73850;SDS011;62190;51.548;5.688;2023-03-12T03:36:37;8.18;;;3.75;;
73850;SDS011;62190;51.548;5.688;2023-03-12T03:39:04;7.80;;;3.75;;
73850;SDS011;62190;51.548;5.688;2023-03-12T03:41:31;6.87;;;3.70;;
73850;SDS011;62190;51.548;5.688;2023-03-12T03:43:59;10.43;;;4.37;;
73850;SDS011;62190;51.548;5.688;2023-03-12T03:46:27;6.80;;;3.33;;
73850;SDS011;62190;51.548;5.688;2023-03-12T03:48:54;10.40;;;4.15;;
73850;SDS011;62190;51.548;5.688;2023-03-12T03:51:22;9.55;;;4.80;;
73850;SDS011;62190;51.548;5.688;2023-03-12T03:53:49;9.20;;;4.50;;
73850;SDS011;62190;51.548;5.688;2023-03-12T03:56:17;10.03;;;3.72;;
73850;SDS011;62190;51.548;5.688;2023-03-12T03:58:44;8.25;;;4.42;;
73850;SDS011;62190;51.548;5.688;2023-03-12T04:01:12;8.50;;;4.42;;
73850;SDS011;62190;51.548;5.688;2023-03-12T04:03:40;10.40;;;4.65;;
73850;SDS011;62190;51.548;5.688;2023-03-12T04:06:07;12.18;;;4.47;;
73850;SDS011;62190;51.548;5.688;2023-03-12T04:08:36;9.68;;;3.95;;
73850;SDS011;62190;51.548;5.688;2023-03-12T04:11:05;8.88;;;4.03;;
73850;SDS011;62190;51.548;5.688;2023-03-12T04:13:34;10.70;;;4.92;;
73850;SDS011;62190;51.548;5.688;2023-03-12T04:16:01;7.22;;;4.05;;
73850;SDS011;62190;51.548;5.688;2023-03-12T04:18:29;8.73;;;4.28;;
73850;SDS011;62190;51.548;5.688;2023-03-12T04:20:57;9.70;;;4.62;;
73850;SDS011;62190;51.548;5.688;2023-03-12T04:23:24;8.15;;;4.50;;
73850;SDS011;62190;51.548;5.688;2023-03-12T04:25:51;7.75;;;3.60;;
73850;SDS011;62190;51.548;5.688;2023-03-12T04:28:19;7.58;;;3.72;;
73850;SDS011;62190;51.548;5.688;2023-03-12T04:30:58;10.00;;;3.77;;
73850;SDS011;62190;51.548;5.688;2023-03-12T04:33:27;8.45;;;3.87;;
73850;SDS011;62190;51.548;5.688;2023-03-12T04:35:56;8.90;;;3.95;;
73850;SDS011;62190;51.548;5.688;2023-03-12T04:38:25;8.95;;;3.65;;
73850;SDS011;62190;51.548;5.688;2023-03-12T04:40:57;9.13;;;3.90;;
73850;SDS011;62190;51.548;5.688;2023-03-12T04:43:26;6.35;;;3.67;;
73850;SDS011;62190;51.548;5.688;2023-03-12T04:45:55;7.10;;;3.70;;
73850;SDS011;62190;51.548;5.688;2023-03-12T04:48:23;9.75;;;3.33;;
73850;SDS011;62190;51.548;5.688;2023-03-12T04:50:53;9.33;;;3.17;;
73850;SDS011;62190;51.548;5.688;2023-03-12T04:53:20;8.45;;;3.45;;
73850;SDS011;62190;51.548;5.688;2023-03-12T04:55:49;7.10;;;3.22;;
73850;SDS011;62190;51.548;5.688;2023-03-12T04:58:19;5.20;;;2.98;;
73850;SDS011;62190;51.548;5.688;2023-03-12T05:00:48;9.23;;;3.22;;
73850;SDS011;62190;51.548;5.688;2023-03-12T05:03:15;6.78;;;3.20;;
73850;SDS011;62190;51.548;5.688;2023-03-12T05:05:43;8.28;;;3.67;;
73850;SDS011;62190;51.548;5.688;2023-03-12T05:08:10;4.95;;;3.22;;
73850;SDS011;62190;51.548;5.688;2023-03-12T05:10:39;12.55;;;3.90;;
73850;SDS011;62190;51.548;5.688;2023-03-12T05:13:18;8.03;;;3.02;;
73850;SDS011;62190;51.548;5.688;2023-03-12T05:15:48;5.03;;;3.22;;
73850;SDS011;62190;51.548;5.688;2023-03-12T05:18:17;6.80;;;3.37;;
73850;SDS011;62190;51.548;5.688;2023-03-12T05:20:58;9.33;;;3.92;;
73850;SDS011;62190;51.548;5.688;2023-03-12T05:23:31;9.90;;;3.45;;
73850;SDS011;62190;51.548;5.688;2023-03-12T05:26:01;9.43;;;2.95;;
73850;SDS011;62190;51.548;5.688;2023-03-12T05:28:28;7.20;;;3.10;;
73850;SDS011;62190;51.548;5.688;2023-03-12T05:30:56;8.35;;;3.25;;
73850;SDS011;62190;51.548;5.688;2023-03-12T05:33:25;6.67;;;3.40;;
73850;SDS011;62190;51.548;5.688;2023-03-12T05:35:53;8.95;;;3.15;;
73850;SDS011;62190;51.548;5.688;2023-03-12T05:38:20;5.70;;;2.98;;
73850;SDS011;62190;51.548;5.688;2023-03-12T05:40:55;9.83;;;3.10;;
73850;SDS011;62190;51.548;5.688;2023-03-12T05:43:24;8.28;;;3.45;;
73850;SDS011;62190;51.548;5.688;2023-03-12T05:45:51;9.53;;;2.92;;
73850;SDS011;62190;51.548;5.688;2023-03-12T05:48:19;7.37;;;3.00;;
73850;SDS011;62190;51.548;5.688;2023-03-12T05:50:46;5.00;;;2.85;;
73850;SDS011;62190;51.548;5.688;2023-03-12T05:53:16;9.33;;;3.58;;
73850;SDS011;62190;51.548;5.688;2023-03-12T05:55:42;7.83;;;2.92;;
73850;SDS011;62190;51.548;5.688;2023-03-12T05:58:12;9.75;;;3.22;;
73850;SDS011;62190;51.548;5.688;2023-03-12T06:00:39;8.18;;;2.87;;
73850;SDS011;62190;51.548;5.688;2023-03-12T06:03:07;6.97;;;3.25;;
73850;SDS011;62190;51.548;5.688;2023-03-12T06:05:35;9.48;;;4.95;;
73850;SDS011;62190;51.548;5.688;2023-03-12T06:08:03;9.38;;;2.83;;
73850;SDS011;62190;51.548;5.688;2023-03-12T06:10:31;7.17;;;3.15;;
73850;SDS011;62190;51.548;5.688;2023-03-12T06:12:59;6.60;;;3.20;;
73850;SDS011;62190;51.548;5.688;2023-03-12T06:15:26;8.25;;;3.47;;
73850;SDS011;62190;51.548;5.688;2023-03-12T06:17:54;7.75;;;3.10;;
73850;SDS011;62190;51.548;5.688;2023-03-12T06:20:21;7.03;;;2.98;;
73850;SDS011;62190;51.548;5.688;2023-03-12T06:22:49;6.50;;;3.40;;
73850;SDS011;62190;51.548;5.688;2023-03-12T06:25:17;11.57;;;3.08;;
73850;SDS011;62190;51.548;5.688;2023-03-12T06:27:45;16.32;;;5.75;;
73850;SDS011;62190;51.548;5.688;2023-03-12T06:30:14;6.08;;;3.60;;
73850;SDS011;62190;51.548;5.688;2023-03-12T06:32:42;10.50;;;4.15;;
73850;SDS011;62190;51.548;5.688;2023-03-12T06:35:09;9.70;;;4.17;;
73850;SDS011;62190;51.548;5.688;2023-03-12T06:37:37;8.55;;;3.90;;
73850;SDS011;62190;51.548;5.688;2023-03-12T06:40:04;10.60;;;4.37;;
73850;SDS011;62190;51.548;5.688;2023-03-12T06:42:34;13.38;;;4.20;;
73850;SDS011;62190;51.548;5.688;2023-03-12T06:45:01;9.48;;;4.53;;
73850;SDS011;62190;51.548;5.688;2023-03-12T06:47:29;9.73;;;5.15;;
73850;SDS011;62190;51.548;5.688;2023-03-12T06:49:57;9.55;;;4.78;;
73850;SDS011;62190;51.548;5.688;2023-03-12T06:52:24;12.37;;;5.42;;
73850;SDS011;62190;51.548;5.688;2023-03-12T06:54:51;11.70;;;6.00;;
73850;SDS011;62190;51.548;5.688;2023-03-12T06:57:18;10.53;;;5.45;;
73850;SDS011;62190;51.548;5.688;2023-03-12T06:59:46;13.72;;;6.87;;
73850;SDS011;62190;51.548;5.688;2023-03-12T07:02:13;13.40;;;7.15;;
73850;SDS011;62190;51.548;5.688;2023-03-12T07:04:40;22.30;;;8.70;;
73850;SDS011;62190;51.548;5.688;2023-03-12T07:07:08;12.82;;;6.25;;
73850;SDS011;62190;51.548;5.688;2023-03-12T07:09:36;14.40;;;7.22;;
73850;SDS011;62190;51.548;5.688;2023-03-12T07:12:03;14.68;;;7.42;;
73850;SDS011;62190;51.548;5.688;2023-03-12T07:14:31;14.18;;;7.42;;
73850;SDS011;62190;51.548;5.688;2023-03-12T07:16:58;13.72;;;7.35;;
73850;SDS011;62190;51.548;5.688;2023-03-12T07:19:27;18.48;;;7.65;;
73850;SDS011;62190;51.548;5.688;2023-03-12T07:21:55;18.37;;;8.40;;
73850;SDS011;62190;51.548;5.688;2023-03-12T07:24:22;13.13;;;7.35;;
73850;SDS011;62190;51.548;5.688;2023-03-12T07:26:49;16.60;;;7.58;;
73850;SDS011;62190;51.548;5.688;2023-03-12T07:29:17;15.65;;;8.85;;
73850;SDS011;62190;51.548;5.688;2023-03-12T07:31:44;15.95;;;8.75;;
73850;SDS011;62190;51.548;5.688;2023-03-12T07:34:11;22.05;;;8.20;;
73850;SDS011;62190;51.548;5.688;2023-03-12T07:36:39;14.38;;;7.72;;
73850;SDS011;62190;51.548;5.688;2023-03-12T07:39:06;15.72;;;8.40;;
73850;SDS011;62190;51.548;5.688;2023-03-12T07:41:33;17.02;;;8.18;;
73850;SDS011;62190;51.548;5.688;2023-03-12T07:44:02;13.28;;;7.42;;
73850;SDS011;62190;51.548;5.688;2023-03-12T07:46:30;16.97;;;8.65;;
73850;SDS011;62190;51.548;5.688;2023-03-12T07:48:57;14.38;;;7.40;;
73850;SDS011;62190;51.548;5.688;2023-03-12T07:51:25;14.13;;;8.30;;
73850;SDS011;62190;51.548;5.688;2023-03-12T07:53:52;15.83;;;8.33;;
73850;SDS011;62190;51.548;5.688;2023-03-12T07:56:20;21.25;;;8.73;;
73850;SDS011;62190;51.548;5.688;2023-03-12T07:58:47;25.68;;;9.75;;
73850;SDS011;62190;51.548;5.688;2023-03-12T08:01:14;17.62;;;8.88;;
73850;SDS011;62190;51.548;5.688;2023-03-12T08:03:42;13.98;;;9.18;;
73850;SDS011;62190;51.548;5.688;2023-03-12T08:06:09;17.52;;;8.88;;
73850;SDS011;62190;51.548;5.688;2023-03-12T08:08:37;15.32;;;8.78;;
73850;SDS011;62190;51.548;5.688;2023-03-12T08:11:06;14.98;;;8.88;;
73850;SDS011;62190;51.548;5.688;2023-03-12T08:13:34;14.85;;;8.95;;
73850;SDS011;62190;51.548;5.688;2023-03-12T08:16:01;14.78;;;8.90;;
73850;SDS011;62190;51.548;5.688;2023-03-12T08:18:29;14.80;;;8.73;;
73850;SDS011;62190;51.548;5.688;2023-03-12T08:20:57;18.57;;;8.75;;
73850;SDS011;62190;51.548;5.688;2023-03-12T08:23:25;19.73;;;9.95;;
73850;SDS011;62190;51.548;5.688;2023-03-12T08:25:57;14.20;;;8.18;;
73850;SDS011;62190;51.548;5.688;2023-03-12T08:28:25;15.40;;;9.25;;
73850;SDS011;62190;51.548;5.688;2023-03-12T08:30:53;17.70;;;10.05;;
73850;SDS011;62190;51.548;5.688;2023-03-12T08:33:21;15.38;;;9.48;;
73850;SDS011;62190;51.548;5.688;2023-03-12T08:35:52;16.12;;;9.40;;
73850;SDS011;62190;51.548;5.688;2023-03-12T08:38:20;15.65;;;9.45;;
73850;SDS011;62190;51.548;5.688;2023-03-12T08:40:59;16.00;;;10.28;;
73850;SDS011;62190;51.548;5.688;2023-03-12T08:43:23;14.93;;;9.35;;
73850;SDS011;62190;51.548;5.688;2023-03-12T08:46:01;17.05;;;10.40;;
73850;SDS011;62190;51.548;5.688;2023-03-12T08:48:24;19.25;;;10.43;;
73850;SDS011;62190;51.548;5.688;2023-03-12T08:50:55;16.67;;;10.10;;
73850;SDS011;62190;51.548;5.688;2023-03-12T08:53:23;16.35;;;10.15;;
73850;SDS011;62190;51.548;5.688;2023-03-12T08:55:52;19.27;;;11.12;;
73850;SDS011;62190;51.548;5.688;2023-03-12T08:58:20;17.75;;;10.68;;
73850;SDS011;62190;51.548;5.688;2023-03-12T09:00:47;20.08;;;10.90;;
73850;SDS011;62190;51.548;5.688;2023-03-12T09:03:15;18.10;;;11.45;;
73850;SDS011;62190;51.548;5.688;2023-03-12T09:05:43;19.20;;;10.63;;
73850;SDS011;62190;51.548;5.688;2023-03-12T09:08:10;18.87;;;11.78;;
73850;SDS011;62190;51.548;5.688;2023-03-12T09:10:38;19.55;;;11.22;;
73850;SDS011;62190;51.548;5.688;2023-03-12T09:13:06;17.77;;;11.65;;
73850;SDS011;62190;51.548;5.688;2023-03-12T09:15:33;18.07;;;12.03;;
73850;SDS011;62190;51.548;5.688;2023-03-12T09:18:00;30.82;;;13.40;;
73850;SDS011;62190;51.548;5.688;2023-03-12T09:20:28;21.17;;;12.50;;
73850;SDS011;62190;51.548;5.688;2023-03-12T09:22:55;19.60;;;12.58;;
73850;SDS011;62190;51.548;5.688;2023-03-12T09:25:22;23.07;;;12.82;;
73850;SDS011;62190;51.548;5.688;2023-03-12T09:27:50;23.50;;;13.20;;
73850;SDS011;62190;51.548;5.688;2023-03-12T09:30:18;24.60;;;14.20;;
73850;SDS011;62190;51.548;5.688;2023-03-12T09:32:48;23.83;;;14.07;;
73850;SDS011;62190;51.548;5.688;2023-03-12T09:35:15;26.40;;;15.10;;
73850;SDS011;62190;51.548;5.688;2023-03-12T09:37:43;19.67;;;12.80;;
73850;SDS011;62190;51.548;5.688;2023-03-12T09:40:17;25.05;;;14.05;;
73850;SDS011;62190;51.548;5.688;2023-03-12T09:42:47;22.58;;;13.65;;
73850;SDS011;62190;51.548;5.688;2023-03-12T09:45:20;23.77;;;13.88;;
73850;SDS011;62190;51.548;5.688;2023-03-12T09:47:50;26.73;;;15.23;;
73850;SDS011;62190;51.548;5.688;2023-03-12T09:53:09;25.00;;;13.65;;
73850;SDS011;62190;51.548;5.688;2023-03-12T09:55:42;26.30;;;13.72;;
73850;SDS011;62190;51.548;5.688;2023-03-12T09:58:44;28.60;;;14.40;;
73850;SDS011;62190;51.548;5.688;2023-03-12T10:00:54;25.08;;;15.45;;
73850;SDS011;62190;51.548;5.688;2023-03-12T10:03:45;26.02;;;15.55;;
73850;SDS011;62190;51.548;5.688;2023-03-12T10:06:26;25.50;;;14.40;;
73850;SDS011;62190;51.548;5.688;2023-03-12T10:09:34;25.60;;;14.65;;
73850;SDS011;62190;51.548;5.688;2023-03-12T10:17:24;24.47;;;14.95;;
73850;SDS011;62190;51.548;5.688;2023-03-12T10:19:55;24.18;;;13.20;;
73850;SDS011;62190;51.548;5.688;2023-03-12T10:25:31;25.32;;;15.00;;
73850;SDS011;62190;51.548;5.688;2023-03-12T10:30:25;36.48;;;20.77;;
73850;SDS011;62190;51.548;5.688;2023-03-12T10:32:58;25.50;;;15.48;;
73850;SDS011;62190;51.548;5.688;2023-03-12T10:35:27;23.90;;;14.60;;
73850;SDS011;62190;51.548;5.688;2023-03-12T10:38:01;33.60;;;19.05;;
73850;SDS011;62190;51.548;5.688;2023-03-12T10:40:31;25.62;;;15.25;;
73850;SDS011;62190;51.548;5.688;2023-03-12T10:42:59;26.80;;;15.32;;
73850;SDS011;62190;51.548;5.688;2023-03-12T10:48:19;24.02;;;15.45;;
73850;SDS011;62190;51.548;5.688;2023-03-12T10:50:59;21.80;;;14.33;;
73850;SDS011;62190;51.548;5.688;2023-03-12T10:53:20;29.25;;;15.55;;
73850;SDS011;62190;51.548;5.688;2023-03-12T10:55:59;27.42;;;16.25;;
73850;SDS011;62190;51.548;5.688;2023-03-12T10:58:48;26.57;;;14.25;;
73850;SDS011;62190;51.548;5.688;2023-03-12T11:01:07;31.00;;;15.98;;
73850;SDS011;62190;51.548;5.688;2023-03-12T11:03:51;28.42;;;16.52;;
73850;SDS011;62190;51.548;5.688;2023-03-12T11:06:21;31.12;;;16.12;;
73850;SDS011;62190;51.548;5.688;2023-03-12T11:11:45;26.73;;;15.75;;
73850;SDS011;62190;51.548;5.688;2023-03-12T11:14:17;31.12;;;16.52;;
73850;SDS011;62190;51.548;5.688;2023-03-12T11:16:55;33.63;;;16.80;;
73850;SDS011;62190;51.548;5.688;2023-03-12T11:19:27;32.67;;;14.87;;
73850;SDS011;62190;51.548;5.688;2023-03-12T11:21:59;32.03;;;15.28;;
73850;SDS011;62190;51.548;5.688;2023-03-12T11:24:29;36.60;;;16.27;;
73850;SDS011;62190;51.548;5.688;2023-03-12T11:29:54;29.32;;;13.05;;
73850;SDS011;62190;51.548;5.688;2023-03-12T11:32:37;30.80;;;15.50;;
73850;SDS011;62190;51.548;5.688;2023-03-12T11:35:15;33.05;;;13.90;;
73850;SDS011;62190;51.548;5.688;2023-03-12T11:38:02;30.12;;;13.43;;
73850;SDS011;62190;51.548;5.688;2023-03-12T11:43:59;25.72;;;11.10;;
73850;SDS011;62190;51.548;5.688;2023-03-12T11:46:10;33.25;;;10.95;;
73850;SDS011;62190;51.548;5.688;2023-03-12T11:49:07;33.28;;;12.63;;
73850;SDS011;62190;51.548;5.688;2023-03-12T11:51:45;27.32;;;12.53;;
73850;SDS011;62190;51.548;5.688;2023-03-12T11:54:25;28.83;;;11.78;;
73850;SDS011;62190;51.548;5.688;2023-03-12T11:56:58;31.05;;;12.18;;
73850;SDS011;62190;51.548;5.688;2023-03-12T12:00:18;28.38;;;11.65;;
73850;SDS011;62190;51.548;5.688;2023-03-12T12:02:28;30.52;;;11.75;;
73850;SDS011;62190;51.548;5.688;2023-03-12T12:16:02;28.25;;;12.58;;
73850;SDS011;62190;51.548;5.688;2023-03-12T12:18:42;32.55;;;12.53;;
73850;SDS011;62190;51.548;5.688;2023-03-12T12:21:23;36.50;;;15.45;;
73850;SDS011;62190;51.548;5.688;2023-03-12T12:26:37;35.73;;;14.93;;
73850;SDS011;62190;51.548;5.688;2023-03-12T12:29:12;25.90;;;13.08;;
73850;SDS011;62190;51.548;5.688;2023-03-12T12:31:56;32.13;;;14.13;;
73850;SDS011;62190;51.548;5.688;2023-03-12T12:40:24;27.50;;;12.98;;
73850;SDS011;62190;51.548;5.688;2023-03-12T12:45:53;26.85;;;11.15;;
73850;SDS011;62190;51.548;5.688;2023-03-12T12:48:28;23.98;;;10.35;;
73850;SDS011;62190;51.548;5.688;2023-03-12T12:50:56;25.37;;;11.30;;
73850;SDS011;62190;51.548;5.688;2023-03-12T12:53:35;20.70;;;10.65;;
73850;SDS011;62190;51.548;5.688;2023-03-12T12:56:09;18.73;;;11.22;;
73850;SDS011;62190;51.548;5.688;2023-03-12T12:58:53;27.32;;;10.90;;
73850;SDS011;62190;51.548;5.688;2023-03-12T13:01:17;20.27;;;10.18;;
73850;SDS011;62190;51.548;5.688;2023-03-12T13:03:45;23.27;;;10.80;;
73850;SDS011;62190;51.548;5.688;2023-03-12T13:06:13;25.45;;;10.82;;
73850;SDS011;62190;51.548;5.688;2023-03-12T13:16:34;27.82;;;12.00;;
73850;SDS011;62190;51.548;5.688;2023-03-12T13:21:53;32.23;;;13.60;;
73850;SDS011;62190;51.548;5.688;2023-03-12T13:24:42;30.75;;;10.78;;
73850;SDS011;62190;51.548;5.688;2023-03-12T13:29:45;27.00;;;11.43;;
73850;SDS011;62190;51.548;5.688;2023-03-12T13:50:57;24.72;;;9.28;;
73850;SDS011;62190;51.548;5.688;2023-03-12T13:53:31;27.20;;;9.43;;
73850;SDS011;62190;51.548;5.688;2023-03-12T13:56:00;34.90;;;9.78;;
73850;SDS011;62190;51.548;5.688;2023-03-12T13:58:29;31.90;;;8.00;;
73850;SDS011;62190;51.548;5.688;2023-03-12T14:01:00;23.80;;;9.03;;
73850;SDS011;62190;51.548;5.688;2023-03-12T14:03:31;26.45;;;7.67;;
73850;SDS011;62190;51.548;5.688;2023-03-12T14:08:40;23.22;;;8.03;;
73850;SDS011;62190;51.548;5.688;2023-03-12T14:11:19;25.10;;;7.83;;
73850;SDS011;62190;51.548;5.688;2023-03-12T14:14:04;20.90;;;6.50;;
73850;SDS011;62190;51.548;5.688;2023-03-12T14:16:37;27.98;;;8.00;;
73850;SDS011;62190;51.548;5.688;2023-03-12T14:19:15;24.07;;;8.00;;
73850;SDS011;62190;51.548;5.688;2023-03-12T14:21:44;25.57;;;8.03;;
73850;SDS011;62190;51.548;5.688;2023-03-12T14:24:18;26.97;;;6.87;;
73850;SDS011;62190;51.548;5.688;2023-03-12T14:26:49;20.30;;;6.75;;
73850;SDS011;62190;51.548;5.688;2023-03-12T14:29:19;24.05;;;7.30;;
73850;SDS011;62190;51.548;5.688;2023-03-12T14:31:46;31.37;;;8.43;;
73850;SDS011;62190;51.548;5.688;2023-03-12T14:34:17;22.98;;;5.72;;
73850;SDS011;62190;51.548;5.688;2023-03-12T14:39:35;33.42;;;8.03;;
73850;SDS011;62190;51.548;5.688;2023-03-12T14:42:09;24.90;;;6.80;;
73850;SDS011;62190;51.548;5.688;2023-03-12T14:44:39;25.15;;;7.55;;
73850;SDS011;62190;51.548;5.688;2023-03-12T14:47:09;22.90;;;6.25;;
73850;SDS011;62190;51.548;5.688;2023-03-12T14:49:41;27.02;;;6.92;;
73850;SDS011;62190;51.548;5.688;2023-03-12T14:52:11;25.23;;;7.50;;
73850;SDS011;62190;51.548;5.688;2023-03-12T14:54:51;27.02;;;7.35;;
73850;SDS011;62190;51.548;5.688;2023-03-12T14:57:17;26.70;;;6.03;;
73850;SDS011;62190;51.548;5.688;2023-03-12T14:59:44;29.92;;;6.40;;
73850;SDS011;62190;51.548;5.688;2023-03-12T15:02:20;28.40;;;6.78;;
73850;SDS011;62190;51.548;5.688;2023-03-12T15:04:48;18.30;;;5.75;;
73850;SDS011;62190;51.548;5.688;2023-03-12T15:07:22;33.15;;;8.08;;
73850;SDS011;62190;51.548;5.688;2023-03-12T15:09:47;25.68;;;6.97;;
73850;SDS011;62190;51.548;5.688;2023-03-12T15:12:21;30.80;;;6.70;;
73850;SDS011;62190;51.548;5.688;2023-03-12T15:14:56;27.67;;;6.50;;
73850;SDS011;62190;51.548;5.688;2023-03-12T15:17:28;22.90;;;6.62;;
73850;SDS011;62190;51.548;5.688;2023-03-12T15:19:56;23.07;;;6.53;;
73850;SDS011;62190;51.548;5.688;2023-03-12T15:22:24;21.70;;;6.42;;
73850;SDS011;62190;51.548;5.688;2023-03-12T15:24:55;25.40;;;6.17;;
73850;SDS011;62190;51.548;5.688;2023-03-12T15:29:56;23.15;;;6.25;;
73850;SDS011;62190;51.548;5.688;2023-03-12T15:32:25;28.38;;;6.42;;
73850;SDS011;62190;51.548;5.688;2023-03-12T15:34:55;22.90;;;5.08;;
73850;SDS011;62190;51.548;5.688;2023-03-12T15:37:27;27.55;;;6.67;;
73850;SDS011;62190;51.548;5.688;2023-03-12T15:40:01;24.72;;;6.37;;
73850;SDS011;62190;51.548;5.688;2023-03-12T15:42:35;20.43;;;5.45;;
73850;SDS011;62190;51.548;5.688;2023-03-12T15:45:04;24.98;;;5.80;;
73850;SDS011;62190;51.548;5.688;2023-03-12T15:47:38;22.93;;;4.83;;
73850;SDS011;62190;51.548;5.688;2023-03-12T15:50:08;23.42;;;5.80;;
73850;SDS011;62190;51.548;5.688;2023-03-12T15:55:34;23.27;;;5.80;;
73850;SDS011;62190;51.548;5.688;2023-03-12T15:58:02;25.02;;;7.08;;
73850;SDS011;62190;51.548;5.688;2023-03-12T16:00:41;22.58;;;6.10;;
73850;SDS011;62190;51.548;5.688;2023-03-12T16:03:16;25.80;;;6.45;;
73850;SDS011;62190;51.548;5.688;2023-03-12T16:05:44;27.00;;;5.12;;
73850;SDS011;62190;51.548;5.688;2023-03-12T16:08:14;23.98;;;5.75;;
73850;SDS011;62190;51.548;5.688;2023-03-12T16:10:45;32.83;;;8.30;;
73850;SDS011;62190;51.548;5.688;2023-03-12T16:13:15;22.95;;;5.03;;
73850;SDS011;62190;51.548;5.688;2023-03-12T16:15:44;25.12;;;6.58;;
73850;SDS011;62190;51.548;5.688;2023-03-12T16:18:12;28.47;;;5.30;;
73850;SDS011;62190;51.548;5.688;2023-03-12T16:20:41;28.35;;;7.08;;
73850;SDS011;62190;51.548;5.688;2023-03-12T16:23:09;28.35;;;5.55;;
73850;SDS011;62190;51.548;5.688;2023-03-12T16:25:37;24.70;;;5.53;;
73850;SDS011;62190;51.548;5.688;2023-03-12T16:28:04;24.60;;;5.53;;